Stretford, United Kingdom
Current Conditions -  °F | °C
As of 3:50 PM on Friday 19 Dec 2014 (Local Time) from EGCC Reporting Station
Light Rain Light Rain  
Wind Chill: 34°   Ceiling: 2900
Heat Index: 43°   Visibility: 6mi
Dew Point: 37°   Wind: 20mph
Humidity: 81%   Direction: 270°W
Pressure: 29.97"   Gusts: NA
Location:  53.44°N, 2.32°W
Report Text: EGCC 191550Z 27017KT 9000 4000E -RA FEW018TCU SCT023 BKN029 06/03 Q1015 TEMPO SHRA
Loading
Personal Weather Stations






























Interactive Weather Map New forecast layout! Learn more

10-Day Weather Forecast

Advertisements
Track Severe Weather on mobile